createdAt,value
2022-10-28T00:01:30.825Z,34.85
2022-10-28T00:04:01.329Z,34.10
2022-10-28T00:06:31.161Z,31.63
2022-10-28T00:08:59.746Z,33.90
2022-10-28T00:11:31.568Z,32.92
2022-10-28T00:14:01.468Z,34.10
2022-10-28T00:16:32.303Z,32.78
2022-10-28T00:19:01.514Z,35.60
2022-10-28T00:21:31.467Z,41.42
2022-10-28T00:24:00.140Z,40.55
2022-10-28T00:26:31.502Z,39.97
2022-10-28T00:29:01.444Z,39.38
2022-10-28T00:31:31.072Z,42.20
2022-10-28T00:34:00.037Z,41.22
2022-10-28T00:36:30.185Z,38.95
2022-10-28T00:38:58.975Z,41.90
2022-10-28T00:41:31.301Z,44.50
2022-10-28T00:44:01.803Z,38.67
2022-10-28T00:46:33.512Z,36.20
2022-10-28T00:51:56.803Z,30.90
2022-10-28T00:54:25.220Z,31.45
2022-10-28T00:56:57.833Z,32.50
2022-10-28T00:59:30.786Z,29.52
2022-10-28T01:01:59.287Z,33.63
2022-10-28T01:04:27.888Z,37.22
2022-10-28T01:06:57.461Z,33.63
2022-10-28T01:12:06.738Z,38.65
2022-10-28T01:14:48.247Z,42.10
2022-10-28T01:17:37.455Z,41.95
2022-10-28T01:20:39.629Z,42.33
2022-10-28T01:23:17.423Z,44.45
2022-10-28T01:26:06.922Z,46.47
2022-10-28T01:29:01.058Z,44.90
2022-10-28T01:31:40.781Z,45.10
2022-10-28T01:34:17.787Z,46.65
2022-10-28T01:36:57.395Z,45.25
2022-10-28T01:39:32.962Z,48.90
2022-10-28T01:42:10.162Z,46.70
2022-10-28T01:44:47.008Z,49.17
2022-10-28T01:47:21.297Z,46.42
2022-10-28T01:49:53.895Z,47.30
2022-10-28T01:52:25.552Z,44.55
2022-10-28T01:54:58.563Z,43.40
2022-10-28T01:57:29.261Z,43.50
2022-10-28T01:59:58.354Z,42.58
2022-10-28T02:02:28.189Z,44.25
2022-10-28T02:05:06.467Z,43.53
2022-10-28T02:07:34.780Z,42.38
2022-10-28T02:10:12.278Z,42.30
2022-10-28T02:12:40.562Z,38.83
2022-10-28T02:15:27.141Z,38.53
2022-10-28T02:18:21.675Z,37.60
2022-10-28T02:20:54.637Z,39.38
2022-10-28T02:23:29.596Z,38.88
2022-10-28T02:26:01.882Z,39.40
2022-10-28T02:28:39.620Z,37.97
2022-10-28T02:31:11.824Z,38.65
2022-10-28T02:33:44.824Z,38.72
2022-10-28T02:36:15.560Z,38.20
2022-10-28T02:38:47.325Z,40.70
2022-10-28T02:41:21.418Z,40.47
2022-10-28T02:43:54.765Z,41.63
2022-10-28T02:46:24.266Z,40.13
2022-10-28T02:48:56.181Z,41.78
2022-10-28T02:51:27.509Z,41.13
2022-10-28T02:54:00.631Z,39.65
2022-10-28T02:56:31.120Z,40.03
2022-10-28T02:58:59.364Z,39.95
2022-10-28T03:01:27.702Z,40.28
2022-10-28T03:03:57.487Z,41.15
2022-10-28T03:08:58.736Z,38.75
2022-10-28T03:11:26.899Z,37.88
2022-10-28T03:13:55.122Z,37.63
2022-10-28T03:16:23.317Z,39.05
2022-10-28T03:18:51.569Z,36.55
2022-10-28T03:21:21.181Z,35.80
2022-10-28T03:23:49.388Z,36.45
2022-10-28T03:26:17.517Z,37.10
2022-10-28T03:28:45.731Z,36.35
2022-10-28T03:31:15.264Z,34.33
2022-10-28T03:33:43.437Z,34.60
2022-10-28T03:36:11.632Z,35.22
2022-10-28T03:38:41.242Z,34.70
2022-10-28T03:41:09.357Z,34.97
2022-10-28T03:43:37.577Z,34.15
2022-10-28T03:46:05.858Z,32.85
2022-10-28T03:48:34.112Z,35.70
2022-10-28T03:51:02.256Z,33.95
2022-10-28T03:53:31.493Z,35.90
2022-10-28T03:56:02.532Z,35.30
2022-10-28T03:58:31.287Z,34.47
2022-10-28T04:00:59.469Z,35.70
2022-10-28T04:03:27.880Z,34.67
2022-10-28T04:05:56.272Z,36.33
2022-10-28T04:08:24.526Z,34.03
2022-10-28T04:10:52.705Z,33.72
2022-10-28T04:13:22.293Z,33.30
2022-10-28T04:15:50.381Z,33.22
2022-10-28T04:18:18.664Z,34.20
2022-10-28T04:20:47.446Z,32.88
2022-10-28T04:23:16.925Z,34.13
2022-10-28T04:25:45.053Z,33.35
2022-10-28T04:28:13.339Z,33.55
2022-10-28T04:30:42.803Z,33.88
2022-10-28T04:33:13.283Z,30.83
2022-10-28T04:35:43.185Z,32.03
2022-10-28T04:38:11.588Z,31.67
2022-10-28T04:40:39.833Z,31.35
2022-10-28T04:43:09.955Z,29.92
2022-10-28T04:45:39.382Z,30.52
2022-10-28T04:48:10.796Z,30.77
2022-10-28T04:50:39.676Z,30.90
2022-10-28T04:53:11.967Z,32.40
2022-10-28T04:55:40.447Z,30.65
2022-10-28T04:58:08.598Z,31.10
2022-10-28T05:00:37.105Z,31.95
2022-10-28T05:03:05.392Z,30.85
2022-10-28T05:05:35.089Z,31.95
2022-10-28T05:08:03.321Z,32.20
2022-10-28T05:10:31.537Z,29.85
2022-10-28T05:12:59.777Z,28.88
2022-10-28T05:15:28.461Z,27.92
2022-10-28T05:17:56.635Z,28.98
2022-10-28T05:20:25.009Z,29.27
2022-10-28T05:22:57.246Z,29.67
2022-10-28T05:25:26.527Z,28.27
2022-10-28T05:27:54.667Z,28.15
2022-10-28T05:30:22.920Z,28.70
2022-10-28T05:32:54.350Z,28.17
2022-10-28T05:35:23.666Z,29.17
2022-10-28T05:37:51.765Z,28.08
2022-10-28T05:40:21.343Z,28.15
2022-10-28T05:42:49.663Z,28.27
2022-10-28T05:45:18.572Z,29.73
2022-10-28T05:47:47.838Z,28.90
2022-10-28T05:50:17.994Z,29.30
2022-10-28T05:52:48.415Z,30.15
2022-10-28T05:55:19.486Z,29.35
2022-10-28T05:57:50.125Z,29.27
2022-10-28T06:00:22.775Z,30.45
2022-10-28T06:02:51.421Z,30.67
2022-10-28T06:05:19.866Z,30.70
2022-10-28T06:07:48.110Z,29.88
2022-10-28T06:10:16.698Z,30.20
2022-10-28T06:12:43.383Z,30.20
2022-10-28T06:15:13.149Z,30.80
2022-10-28T06:17:41.314Z,29.58
2022-10-28T06:20:10.597Z,29.15
2022-10-28T06:22:38.814Z,29.48
2022-10-28T06:25:07.853Z,29.50
2022-10-28T06:27:36.049Z,29.40
2022-10-28T06:30:05.242Z,29.85
2022-10-28T06:32:34.869Z,30.73
2022-10-28T06:35:03.292Z,30.83
2022-10-28T06:37:31.499Z,31.05
2022-10-28T06:39:59.595Z,29.30
2022-10-28T06:42:27.799Z,29.20
2022-10-28T06:44:56.045Z,30.33
2022-10-28T06:47:25.774Z,29.73
2022-10-28T06:49:55.275Z,29.58
2022-10-28T06:52:23.623Z,30.23
2022-10-28T06:54:51.733Z,29.35
2022-10-28T06:57:19.881Z,29.40
2022-10-28T06:59:49.908Z,29.75
2022-10-28T07:02:18.204Z,28.80
2022-10-28T07:04:46.398Z,30.35
2022-10-28T07:07:16.113Z,29.25
2022-10-28T07:09:45.102Z,29.70
2022-10-28T07:12:13.333Z,30.83
2022-10-28T07:14:44.082Z,29.25
2022-10-28T07:17:12.288Z,30.25
2022-10-28T07:19:40.452Z,31.85
2022-10-28T07:22:08.830Z,31.95
2022-10-28T07:24:38.336Z,31.58
2022-10-28T07:27:06.558Z,32.58
2022-10-28T07:29:34.804Z,31.33
2022-10-28T07:32:03.209Z,31.15
2022-10-28T07:34:31.351Z,32.38
2022-10-28T07:36:59.756Z,30.45
2022-10-28T07:39:29.057Z,31.42
2022-10-28T07:41:58.774Z,31.92
2022-10-28T07:44:26.952Z,30.20
2022-10-28T07:46:57.997Z,29.48
2022-10-28T07:49:26.832Z,28.88
2022-10-28T07:51:55.028Z,30.15
2022-10-28T07:54:23.291Z,29.20
2022-10-28T07:56:51.531Z,29.58
2022-10-28T07:59:26.828Z,29.60
2022-10-28T08:01:55.765Z,29.45
2022-10-28T08:04:24.303Z,30.08
2022-10-28T08:06:55.544Z,29.25
2022-10-28T08:09:23.931Z,29.80
2022-10-28T08:11:52.089Z,28.90
2022-10-28T08:14:21.823Z,29.60
2022-10-28T08:16:49.935Z,31.02
2022-10-28T08:19:18.090Z,29.52
2022-10-28T08:21:46.301Z,29.38
2022-10-28T08:24:14.737Z,30.17
2022-10-28T08:26:42.886Z,28.30
2022-10-28T08:29:12.314Z,29.83
2022-10-28T08:31:42.051Z,29.13
2022-10-28T08:34:10.504Z,27.73
2022-10-28T08:36:38.741Z,26.42
2022-10-28T08:39:07.067Z,28.40
2022-10-28T08:41:40.913Z,27.60
2022-10-28T08:44:34.680Z,28.23
2022-10-28T08:47:17.736Z,26.38
2022-10-28T08:49:49.963Z,27.70
2022-10-28T08:52:26.849Z,25.55
2022-10-28T08:54:58.788Z,28.35
2022-10-28T08:57:35.955Z,27.70
2022-10-28T09:00:07.917Z,31.67
2022-10-28T09:02:50.199Z,27.17
2022-10-28T09:05:22.879Z,27.60
2022-10-28T09:07:51.806Z,28.67
2022-10-28T09:10:32.142Z,28.45
2022-10-28T09:13:07.686Z,27.52
2022-10-28T09:15:44.628Z,28.42
2022-10-28T09:18:19.669Z,27.90
2022-10-28T09:20:53.519Z,26.88
2022-10-28T09:23:24.860Z,26.88
2022-10-28T09:26:05.965Z,27.23
2022-10-28T09:28:50.537Z,26.33
2022-10-28T09:31:26.150Z,25.75
2022-10-28T09:34:15.348Z,25.75
2022-10-28T09:36:47.386Z,25.40
2022-10-28T09:39:20.896Z,26.23
2022-10-28T09:41:53.803Z,26.98
2022-10-28T09:44:26.791Z,25.48
2022-10-28T09:46:58.299Z,25.67
2022-10-28T09:49:31.232Z,26.77
2022-10-28T09:52:06.614Z,25.10
2022-10-28T09:54:37.815Z,24.17
2022-10-28T09:57:06.994Z,23.42
2022-10-28T09:59:35.794Z,23.90
2022-10-28T10:02:05.570Z,25.02
2022-10-28T10:04:36.192Z,24.92
2022-10-28T10:07:09.553Z,25.48
2022-10-28T10:09:40.138Z,23.13
2022-10-28T10:12:11.012Z,22.20
2022-10-28T10:14:42.611Z,22.98
2022-10-28T10:17:17.522Z,23.77
2022-10-28T10:20:07.576Z,23.38
2022-10-28T10:22:38.036Z,22.38
2022-10-28T10:25:25.233Z,23.17
2022-10-28T10:27:57.661Z,22.48
2022-10-28T10:30:30.486Z,22.00
2022-10-28T10:32:59.331Z,22.30
2022-10-28T10:35:31.400Z,22.52
2022-10-28T10:38:02.249Z,21.92
2022-10-28T10:40:32.468Z,20.48
2022-10-28T10:43:21.643Z,22.33
2022-10-28T10:46:02.205Z,21.45
2022-10-28T10:48:32.364Z,21.30
2022-10-28T10:51:07.395Z,21.75
2022-10-28T10:53:37.200Z,22.42
2022-10-28T10:56:08.680Z,20.88
2022-10-28T10:58:40.267Z,21.30
2022-10-28T11:01:09.813Z,20.35
2022-10-28T11:03:47.379Z,19.60
2022-10-28T11:06:24.858Z,20.38
2022-10-28T11:08:59.025Z,20.63
2022-10-28T11:11:34.365Z,19.20
2022-10-28T11:14:08.633Z,18.23
2022-10-28T11:16:50.028Z,19.30
2022-10-28T11:19:22.965Z,19.08
2022-10-28T11:22:14.329Z,18.08
2022-10-28T11:24:59.992Z,17.40
2022-10-28T11:27:37.602Z,17.23
2022-10-28T11:30:11.341Z,16.13
2022-10-28T11:33:08.047Z,16.20
2022-10-28T11:36:04.309Z,16.77
2022-10-28T11:38:54.969Z,14.05
2022-10-28T11:41:35.149Z,14.80
2022-10-28T11:44:09.615Z,15.05
2022-10-28T11:46:45.936Z,16.45
2022-10-28T11:49:46.698Z,16.75
2022-10-28T11:52:28.589Z,12.98
2022-10-28T11:55:15.467Z,14.00
2022-10-28T11:57:55.881Z,13.70
2022-10-28T12:00:44.737Z,13.95
2022-10-28T12:03:37.937Z,13.45
2022-10-28T12:06:16.269Z,13.70
2022-10-28T12:14:31.032Z,13.35
2022-10-28T12:17:06.620Z,13.05
2022-10-28T12:19:39.988Z,12.32
2022-10-28T12:22:13.956Z,13.25
2022-10-28T12:24:47.210Z,12.75
2022-10-28T12:27:23.369Z,12.10
2022-10-28T12:29:55.573Z,12.45
2022-10-28T12:32:27.256Z,11.52
2022-10-28T12:35:02.412Z,12.38
2022-10-28T12:37:38.006Z,11.60
2022-10-28T12:40:14.032Z,12.35
2022-10-28T12:42:48.918Z,11.48
2022-10-28T12:45:20.588Z,11.55
2022-10-28T12:47:56.621Z,11.32
2022-10-28T12:50:32.679Z,12.35
2022-10-28T12:53:16.952Z,11.80
2022-10-28T12:55:50.911Z,11.52
2022-10-28T12:58:28.267Z,11.23
2022-10-28T13:01:00.302Z,11.88
2022-10-28T13:03:28.652Z,12.68
2022-10-28T13:06:22.177Z,11.63
2022-10-28T13:09:20.569Z,10.80
2022-10-28T13:12:20.030Z,11.38
2022-10-28T13:15:20.853Z,10.25
2022-10-28T13:18:02.012Z,10.68
2022-10-28T13:20:44.161Z,11.40
2022-10-28T13:23:22.730Z,10.20
2022-10-28T13:26:01.291Z,10.48
2022-10-28T13:28:32.766Z,10.45
2022-10-28T13:31:04.602Z,10.52
2022-10-28T13:33:36.376Z,10.27
2022-10-28T13:36:19.593Z,9.98
2022-10-28T13:38:53.993Z,9.93
2022-10-28T13:41:34.714Z,10.18
2022-10-28T13:44:25.206Z,10.13
2022-10-28T13:47:29.389Z,9.20
2022-10-28T13:50:25.958Z,9.30
2022-10-28T13:53:46.035Z,9.40
2022-10-28T13:56:45.235Z,9.00
2022-10-28T13:59:40.865Z,9.73
2022-10-28T14:02:35.189Z,9.23
2022-10-28T14:05:07.914Z,9.85
2022-10-28T14:07:38.178Z,10.70
2022-10-28T14:10:23.402Z,9.65
2022-10-28T14:12:55.879Z,9.82
2022-10-28T14:15:27.065Z,9.77
2022-10-28T14:18:09.815Z,9.70
2022-10-28T14:21:00.807Z,9.57
2022-10-28T14:24:17.119Z,10.60
2022-10-28T14:27:31.016Z,10.20
2022-10-28T14:30:23.945Z,10.13
2022-10-28T14:33:13.747Z,10.60
2022-10-28T14:35:45.633Z,10.32
2022-10-28T14:38:42.964Z,10.38
2022-10-28T14:41:27.759Z,10.65
2022-10-28T14:44:06.489Z,11.52
2022-10-28T14:46:50.120Z,11.90
2022-10-28T14:49:22.685Z,10.90
2022-10-28T14:51:52.013Z,11.45
2022-10-28T14:54:36.586Z,11.07
2022-10-28T14:57:09.788Z,11.98
2022-10-28T14:59:41.148Z,11.32
2022-10-28T15:02:15.492Z,11.65
2022-10-28T15:04:46.860Z,12.43
2022-10-28T15:07:17.946Z,11.75
2022-10-28T15:09:53.344Z,11.70
2022-10-28T15:12:23.711Z,12.55
2022-10-28T15:14:53.364Z,12.00
2022-10-28T15:17:23.152Z,12.45
2022-10-28T15:19:52.736Z,13.05
2022-10-28T15:22:23.894Z,12.25
2022-10-28T15:25:01.466Z,12.68
2022-10-28T15:27:32.291Z,13.07
2022-10-28T15:30:00.752Z,12.70
2022-10-28T15:32:31.916Z,13.15
2022-10-28T15:35:00.937Z,13.00
2022-10-28T15:37:31.018Z,13.65
2022-10-28T15:40:20.977Z,14.25
2022-10-28T15:42:53.616Z,14.25
2022-10-28T15:45:25.966Z,13.50
2022-10-28T15:47:55.438Z,14.00
2022-10-28T15:50:29.962Z,12.25
2022-10-28T15:53:31.879Z,14.68
2022-10-28T15:56:26.354Z,13.63
2022-10-28T15:59:18.543Z,14.20
2022-10-28T16:01:47.062Z,13.63
2022-10-28T16:04:43.392Z,14.18
2022-10-28T16:07:12.171Z,13.95
2022-10-28T16:09:46.265Z,14.05
2022-10-28T16:12:18.131Z,13.70
2022-10-28T16:14:49.199Z,13.57
2022-10-28T16:17:19.467Z,13.68
2022-10-28T16:19:52.993Z,13.25
2022-10-28T16:22:22.358Z,13.23
2022-10-28T16:24:52.057Z,12.85
2022-10-28T16:27:23.588Z,12.13
2022-10-28T16:29:51.911Z,13.20
2022-10-28T16:32:25.757Z,13.38
2022-10-28T16:34:54.732Z,12.85
2022-10-28T16:37:25.951Z,12.90
2022-10-28T16:39:54.683Z,12.00
2022-10-28T16:42:24.989Z,12.63
2022-10-28T16:44:53.429Z,12.82
2022-10-28T16:47:25.658Z,12.73
2022-10-28T16:49:57.371Z,12.43
2022-10-28T16:52:27.406Z,12.13
2022-10-28T16:54:55.853Z,12.20
2022-10-28T16:57:25.863Z,12.90
2022-10-28T16:59:54.792Z,12.32
2022-10-28T17:02:26.518Z,12.57
2022-10-28T17:04:54.878Z,12.85
2022-10-28T17:07:23.167Z,12.43
2022-10-28T17:09:52.025Z,12.60
2022-10-28T17:12:21.892Z,12.77
2022-10-28T17:14:51.988Z,12.63
2022-10-28T17:17:20.493Z,13.45
2022-10-28T17:19:48.658Z,13.52
2022-10-28T17:22:16.898Z,13.65
2022-10-28T17:24:45.190Z,15.75
2022-10-28T17:27:13.954Z,13.40
2022-10-28T17:29:42.204Z,14.18
2022-10-28T17:32:11.765Z,14.30
2022-10-28T17:34:40.016Z,14.05
2022-10-28T17:37:08.741Z,14.07
2022-10-28T17:39:37.913Z,13.90
2022-10-28T17:42:06.112Z,14.73
2022-10-28T17:44:34.485Z,14.23
2022-10-28T17:47:02.959Z,14.35
2022-10-28T17:49:34.339Z,13.73
2022-10-28T17:52:02.654Z,15.02
2022-10-28T17:54:30.767Z,15.02
2022-10-28T17:56:59.017Z,14.05
2022-10-28T17:59:27.191Z,15.60
2022-10-28T18:01:55.524Z,14.35
2022-10-28T18:04:26.260Z,15.25
2022-10-28T18:06:57.562Z,13.95
2022-10-28T18:09:27.722Z,14.40
2022-10-28T18:11:55.879Z,13.98
2022-10-28T18:14:24.055Z,13.73
2022-10-28T18:16:52.188Z,14.70
2022-10-28T18:19:20.452Z,13.50
2022-10-28T18:21:48.710Z,14.80
2022-10-28T18:24:20.565Z,13.52
2022-10-28T18:26:51.708Z,13.18
2022-10-28T18:29:19.881Z,13.60
2022-10-28T18:31:48.348Z,13.55
2022-10-28T18:34:16.734Z,13.00
2022-10-28T18:36:45.144Z,13.27
2022-10-28T18:39:13.291Z,13.80
2022-10-28T18:41:43.892Z,13.40
2022-10-28T18:44:14.212Z,13.98
2022-10-28T18:46:45.210Z,13.43
2022-10-28T18:49:13.734Z,13.07
2022-10-28T18:51:41.926Z,12.40
2022-10-28T18:54:10.205Z,13.15
2022-10-28T18:56:38.452Z,13.10
2022-10-28T18:59:09.849Z,13.00
2022-10-28T19:01:38.636Z,12.75
2022-10-28T19:04:06.836Z,13.35
2022-10-28T19:06:35.453Z,12.60
2022-10-28T19:09:05.656Z,12.77
2022-10-28T19:11:34.826Z,13.10
2022-10-28T19:14:04.759Z,12.52
2022-10-28T19:16:35.491Z,12.38
2022-10-28T19:19:06.014Z,12.77
2022-10-28T19:21:34.963Z,12.35
2022-10-28T19:24:03.648Z,12.65
2022-10-28T19:26:33.631Z,13.45
2022-10-28T19:29:02.202Z,12.48
2022-10-28T19:31:30.884Z,12.35
2022-10-28T19:34:00.386Z,12.73
2022-10-28T19:36:29.816Z,12.73
2022-10-28T19:38:59.114Z,12.73
2022-10-28T19:41:29.405Z,12.32
2022-10-28T19:43:59.221Z,12.88
2022-10-28T19:46:28.445Z,12.32
2022-10-28T19:48:58.897Z,12.50
2022-10-28T19:51:30.114Z,11.77
2022-10-28T19:53:59.844Z,11.85
2022-10-28T19:56:30.060Z,11.48
2022-10-28T19:59:02.786Z,11.82
2022-10-28T20:01:33.290Z,11.52
2022-10-28T20:04:09.942Z,11.52
2022-10-28T20:06:41.493Z,11.90
2022-10-28T20:09:10.268Z,11.27
2022-10-28T20:11:39.847Z,12.07
2022-10-28T20:14:12.862Z,11.93
2022-10-28T20:16:43.188Z,11.55
2022-10-28T20:19:11.768Z,11.70
2022-10-28T20:21:41.807Z,11.18
2022-10-28T20:24:10.203Z,11.52
2022-10-28T20:26:39.663Z,11.20
2022-10-28T20:29:10.089Z,11.38
2022-10-28T20:31:41.970Z,10.98
2022-10-28T20:34:11.588Z,11.02
2022-10-28T20:36:44.073Z,11.40
2022-10-28T20:39:14.486Z,11.00
2022-10-28T20:41:44.065Z,10.98
2022-10-28T20:44:12.579Z,11.88
2022-10-28T20:46:40.973Z,11.10
2022-10-28T20:49:10.662Z,11.02
2022-10-28T20:51:38.902Z,11.27
2022-10-28T20:54:11.735Z,11.45
2022-10-28T20:56:41.888Z,11.70
2022-10-28T20:59:10.229Z,10.70
2022-10-28T21:01:42.545Z,11.38
2022-10-28T21:04:12.052Z,12.38
2022-10-28T21:06:41.001Z,12.20
2022-10-28T21:09:13.647Z,11.50
2022-10-28T21:11:41.902Z,11.82
2022-10-28T21:14:10.266Z,12.60
2022-10-28T21:16:38.543Z,12.20
2022-10-28T21:19:06.716Z,12.10
2022-10-28T21:21:34.980Z,11.18
2022-10-28T21:24:04.972Z,12.35
2022-10-28T21:26:34.548Z,12.85
2022-10-28T21:29:02.725Z,12.30
2022-10-28T21:31:30.946Z,11.93
2022-10-28T21:34:00.794Z,12.48
2022-10-28T21:36:31.891Z,11.45
2022-10-28T21:39:00.032Z,12.63
2022-10-28T21:41:30.159Z,12.05
2022-10-28T21:43:59.840Z,11.93
2022-10-28T21:46:28.103Z,12.25
2022-10-28T21:48:56.407Z,12.32
2022-10-28T21:51:24.965Z,13.13
2022-10-28T21:53:53.230Z,12.05
2022-10-28T21:56:21.761Z,12.65
2022-10-28T21:58:51.457Z,12.50
2022-10-28T22:01:22.653Z,12.65
2022-10-28T22:03:51.669Z,12.98
2022-10-28T22:06:19.831Z,13.07
2022-10-28T22:08:48.259Z,13.02
2022-10-28T22:11:18.188Z,13.10
2022-10-28T22:13:46.913Z,12.77
2022-10-28T22:16:17.030Z,12.52
2022-10-28T22:18:46.886Z,13.25
2022-10-28T22:21:17.444Z,13.38
2022-10-28T22:23:45.664Z,12.90
2022-10-28T22:26:16.181Z,12.85
2022-10-28T22:28:44.651Z,13.15
2022-10-28T22:31:15.135Z,12.77
2022-10-28T22:33:44.227Z,13.10
2022-10-28T22:36:16.137Z,12.73
2022-10-28T22:38:45.198Z,12.65
2022-10-28T22:41:18.319Z,13.63
2022-10-28T22:43:47.655Z,13.43
2022-10-28T22:46:17.100Z,13.10
2022-10-28T22:48:45.934Z,12.80
2022-10-28T22:51:18.423Z,12.77
2022-10-28T22:53:47.223Z,12.80
2022-10-28T22:56:16.696Z,13.15
2022-10-28T22:58:44.900Z,12.23
2022-10-28T23:01:15.522Z,12.63
2022-10-28T23:03:45.105Z,12.07
2022-10-28T23:06:15.893Z,12.48
2022-10-28T23:08:45.481Z,12.10
2022-10-28T23:11:14.915Z,12.43
2022-10-28T23:13:43.654Z,11.77
2022-10-28T23:16:13.173Z,11.68
2022-10-28T23:18:41.782Z,10.95
2022-10-28T23:21:13.505Z,10.68
2022-10-28T23:23:49.718Z,11.50
2022-10-28T23:26:21.507Z,11.57
2022-10-28T23:28:52.754Z,9.95
2022-10-28T23:31:21.421Z,11.05
2022-10-28T23:33:49.839Z,10.55
2022-10-28T23:36:18.516Z,11.48
2022-10-28T23:38:48.190Z,11.07
2022-10-28T23:41:18.871Z,11.15
2022-10-28T23:43:48.781Z,10.52
2022-10-28T23:46:17.354Z,11.85
2022-10-28T23:48:45.608Z,11.45
2022-10-28T23:51:14.163Z,11.50
2022-10-28T23:53:42.381Z,11.27
2022-10-28T23:56:11.900Z,11.05
2022-10-28T23:58:40.207Z,10.23
